createdAt,value
2017-12-15T00:01:09.084Z,3.71
2017-12-15T00:03:34.835Z,3.69
2017-12-15T00:06:00.590Z,3.76
2017-12-15T00:08:26.369Z,3.73
2017-12-15T00:10:52.152Z,3.67
2017-12-15T00:13:17.912Z,3.69
2017-12-15T00:15:43.664Z,3.62
2017-12-15T00:18:09.431Z,3.52
2017-12-15T00:20:35.199Z,3.61
2017-12-15T00:23:00.971Z,3.62
2017-12-15T00:25:26.745Z,3.70
2017-12-15T00:27:52.501Z,3.65
2017-12-15T00:30:18.275Z,3.68
2017-12-15T00:32:44.024Z,3.63
2017-12-15T00:35:09.799Z,3.54
2017-12-15T00:37:35.561Z,3.60
2017-12-15T00:40:01.328Z,3.59
2017-12-15T00:42:27.074Z,3.53
2017-12-15T00:44:52.853Z,3.54
2017-12-15T00:47:18.620Z,3.49
2017-12-15T00:49:44.392Z,3.48
2017-12-15T00:52:10.160Z,3.67
2017-12-15T00:54:35.917Z,3.80
2017-12-15T00:57:01.688Z,3.79
2017-12-15T00:59:27.448Z,3.59
2017-12-15T01:01:53.227Z,3.53
2017-12-15T01:04:19.012Z,3.58
2017-12-15T01:06:44.771Z,3.70
2017-12-15T01:09:10.570Z,3.60
2017-12-15T01:11:36.314Z,3.59
2017-12-15T01:14:02.079Z,3.62
2017-12-15T01:16:27.856Z,3.63
2017-12-15T01:18:53.608Z,3.73
2017-12-15T01:21:19.378Z,3.85
2017-12-15T01:23:45.123Z,3.80
2017-12-15T01:26:10.910Z,3.76
2017-12-15T01:28:36.662Z,3.65
2017-12-15T01:31:02.433Z,3.65
2017-12-15T01:33:28.199Z,3.71
2017-12-15T01:35:53.967Z,3.80
2017-12-15T01:38:19.719Z,3.68
2017-12-15T01:40:45.494Z,3.70
2017-12-15T01:43:11.264Z,3.61
2017-12-15T01:45:37.018Z,3.61
2017-12-15T01:48:02.802Z,3.70
2017-12-15T01:50:28.569Z,3.66
2017-12-15T01:52:54.343Z,3.74
2017-12-15T01:55:20.099Z,3.78
2017-12-15T01:57:45.879Z,3.70
2017-12-15T02:00:11.648Z,3.80
2017-12-15T02:02:37.428Z,3.86
2017-12-15T02:05:03.179Z,3.87
2017-12-15T02:07:28.942Z,4.00
2017-12-15T02:09:54.691Z,4.06
2017-12-15T02:12:20.444Z,4.03
2017-12-15T02:14:46.190Z,3.99
2017-12-15T02:17:11.988Z,4.01
2017-12-15T02:19:37.759Z,3.88
2017-12-15T02:22:03.514Z,3.95
2017-12-15T02:24:29.291Z,3.95
2017-12-15T02:26:55.062Z,3.91
2017-12-15T02:29:20.830Z,3.94
2017-12-15T02:31:46.589Z,3.97
2017-12-15T02:34:12.381Z,3.99
2017-12-15T02:36:38.148Z,3.85
2017-12-15T02:39:04.007Z,3.80
2017-12-15T02:41:29.755Z,3.69
2017-12-15T02:43:55.521Z,3.63
2017-12-15T02:46:21.295Z,3.65
2017-12-15T02:48:47.064Z,3.59
2017-12-15T02:51:12.811Z,3.56
2017-12-15T02:53:38.585Z,3.55
2017-12-15T02:56:04.335Z,3.67
2017-12-15T02:58:30.120Z,3.56
2017-12-15T03:00:55.887Z,3.60
2017-12-15T03:03:21.651Z,3.63
2017-12-15T03:05:47.423Z,3.61
2017-12-15T03:08:13.182Z,3.64
2017-12-15T03:10:38.961Z,3.71
2017-12-15T03:13:04.720Z,3.61
2017-12-15T03:15:30.487Z,3.67
2017-12-15T03:17:56.230Z,3.58
2017-12-15T03:20:21.995Z,3.55
2017-12-15T03:22:47.742Z,3.62
2017-12-15T03:25:13.513Z,3.68
2017-12-15T03:27:39.273Z,3.67
2017-12-15T03:30:05.046Z,3.71
2017-12-15T03:32:30.816Z,3.64
2017-12-15T03:34:56.581Z,3.50
2017-12-15T03:37:22.337Z,3.55
2017-12-15T03:39:48.126Z,3.73
2017-12-15T03:42:13.870Z,3.55
2017-12-15T03:44:39.658Z,3.49
2017-12-15T03:47:05.414Z,3.41
2017-12-15T03:49:31.162Z,3.43
2017-12-15T03:51:56.933Z,3.46
2017-12-15T03:54:22.680Z,3.45
2017-12-15T03:56:48.447Z,3.45
2017-12-15T03:59:14.194Z,3.45
2017-12-15T04:01:39.961Z,3.41
2017-12-15T04:04:05.703Z,3.34
2017-12-15T04:06:31.488Z,3.44
2017-12-15T04:08:57.269Z,3.50
2017-12-15T04:11:23.041Z,3.38
2017-12-15T04:13:48.801Z,3.39
2017-12-15T04:16:14.572Z,3.40
2017-12-15T04:18:40.349Z,3.41
2017-12-15T04:21:06.123Z,3.53
2017-12-15T04:23:31.883Z,3.53
2017-12-15T04:25:57.655Z,3.59
2017-12-15T04:28:23.412Z,3.60
2017-12-15T04:30:49.173Z,3.59
2017-12-15T04:33:14.939Z,3.64
2017-12-15T04:35:40.723Z,3.54
2017-12-15T04:38:06.484Z,3.53
2017-12-15T04:40:32.236Z,3.56
2017-12-15T04:42:57.999Z,3.73
2017-12-15T04:45:23.755Z,3.74
2017-12-15T04:47:49.531Z,3.78
2017-12-15T04:50:15.271Z,3.91
2017-12-15T04:52:41.063Z,3.83
2017-12-15T04:55:06.810Z,3.71
2017-12-15T04:57:32.565Z,3.63
2017-12-15T04:59:58.337Z,3.69
2017-12-15T05:02:24.091Z,3.61
2017-12-15T05:04:49.855Z,3.60
2017-12-15T05:07:15.615Z,3.62
2017-12-15T05:09:41.381Z,3.59
2017-12-15T05:12:07.127Z,3.63
2017-12-15T05:14:32.891Z,3.62
2017-12-15T05:16:58.664Z,3.54
2017-12-15T05:19:24.419Z,3.47
2017-12-15T05:21:50.173Z,3.35
2017-12-15T05:24:15.939Z,3.16
2017-12-15T05:26:41.680Z,3.06
2017-12-15T05:29:07.455Z,2.98
2017-12-15T05:31:33.222Z,2.95
2017-12-15T05:33:58.986Z,2.90
2017-12-15T05:36:24.736Z,2.87
2017-12-15T05:38:50.496Z,2.97
2017-12-15T05:41:16.253Z,2.85
2017-12-15T05:43:42.021Z,3.07
2017-12-15T05:46:07.787Z,3.04
2017-12-15T05:48:33.551Z,3.09
2017-12-15T05:50:59.308Z,3.16
2017-12-15T05:53:25.054Z,3.19
2017-12-15T05:55:50.820Z,3.15
2017-12-15T05:58:16.568Z,3.08
2017-12-15T06:00:42.328Z,3.14
2017-12-15T06:03:08.079Z,3.24
2017-12-15T06:05:33.847Z,3.22
2017-12-15T06:07:59.591Z,3.33
2017-12-15T06:10:25.347Z,3.39
2017-12-15T06:12:51.106Z,3.41
2017-12-15T06:17:58.797Z,3.47
2017-12-15T06:20:24.567Z,3.58
2017-12-15T06:22:50.312Z,3.50
2017-12-15T06:25:16.075Z,3.44
2017-12-15T06:27:41.824Z,3.24
2017-12-15T06:30:07.589Z,3.20
2017-12-15T06:32:33.355Z,3.20
2017-12-15T06:34:59.121Z,3.25
2017-12-15T06:37:24.876Z,3.34
2017-12-15T06:39:50.614Z,3.48
2017-12-15T06:42:16.399Z,3.27
2017-12-15T06:44:42.163Z,3.26
2017-12-15T06:47:07.923Z,3.32
2017-12-15T06:49:33.674Z,3.29
2017-12-15T06:51:59.435Z,3.27
2017-12-15T06:54:25.196Z,3.27
2017-12-15T06:56:50.955Z,3.28
2017-12-15T06:59:16.707Z,3.23
2017-12-15T07:01:42.455Z,3.28
2017-12-15T07:04:08.211Z,3.22
2017-12-15T07:06:34.039Z,3.15
2017-12-15T07:08:59.747Z,3.22
2017-12-15T07:11:25.504Z,3.14
2017-12-15T07:13:51.271Z,3.16
2017-12-15T07:16:17.019Z,3.26
2017-12-15T07:18:42.772Z,3.33
2017-12-15T07:21:08.510Z,3.44
2017-12-15T07:23:34.268Z,3.41
2017-12-15T07:26:00.014Z,3.52
2017-12-15T07:28:25.774Z,3.61
2017-12-15T07:30:51.536Z,3.63
2017-12-15T07:33:17.307Z,3.71
2017-12-15T07:35:43.046Z,3.64
2017-12-15T07:38:08.791Z,3.59
2017-12-15T07:40:34.565Z,3.67
2017-12-15T07:43:00.324Z,3.68
2017-12-15T07:45:26.146Z,3.76
2017-12-15T07:47:51.863Z,3.75
2017-12-15T07:50:17.627Z,3.75
2017-12-15T07:52:43.383Z,3.79
2017-12-15T07:55:09.144Z,3.81
2017-12-15T07:57:34.908Z,3.73
2017-12-15T08:00:00.673Z,3.74
2017-12-15T08:02:26.415Z,3.71
2017-12-15T08:04:52.174Z,3.66
2017-12-15T08:07:18.033Z,3.74
2017-12-15T08:09:43.699Z,3.85
2017-12-15T08:12:09.447Z,3.95
2017-12-15T08:14:35.213Z,3.88
2017-12-15T08:17:00.963Z,4.00
2017-12-15T08:19:26.728Z,4.09
2017-12-15T08:21:52.473Z,4.03
2017-12-15T08:24:18.239Z,4.03
2017-12-15T08:26:44.011Z,4.02
2017-12-15T08:29:09.750Z,4.11
2017-12-15T08:31:35.527Z,3.99
2017-12-15T08:34:01.304Z,3.93
2017-12-15T08:36:27.076Z,3.84
2017-12-15T08:38:52.821Z,3.94
2017-12-15T08:41:18.597Z,4.01
2017-12-15T08:43:44.341Z,4.00
2017-12-15T08:46:10.102Z,4.10
2017-12-15T08:48:35.870Z,4.20
2017-12-15T08:51:01.622Z,4.12
2017-12-15T08:53:27.382Z,4.16
2017-12-15T08:55:53.135Z,3.96
2017-12-15T08:58:18.890Z,4.04
2017-12-15T09:00:44.659Z,3.98
2017-12-15T09:03:10.411Z,4.22
2017-12-15T09:05:36.175Z,4.19
2017-12-15T09:08:01.931Z,4.19
2017-12-15T09:10:27.691Z,3.90
2017-12-15T09:12:53.455Z,3.97
2017-12-15T09:15:19.210Z,4.01
2017-12-15T09:17:44.980Z,4.03
2017-12-15T09:20:10.727Z,3.88
2017-12-15T09:22:36.493Z,3.97
2017-12-15T09:25:02.244Z,4.01
2017-12-15T09:27:27.995Z,3.94
2017-12-15T09:29:53.756Z,4.05
2017-12-15T09:32:19.507Z,4.02
2017-12-15T09:34:45.263Z,3.89
2017-12-15T09:37:11.016Z,3.87
2017-12-15T09:39:36.758Z,3.95
2017-12-15T09:42:02.523Z,4.09
2017-12-15T09:44:28.276Z,4.07
2017-12-15T09:46:54.034Z,4.11
2017-12-15T09:49:19.796Z,4.16
2017-12-15T09:51:45.555Z,4.21
2017-12-15T09:54:11.319Z,4.15
2017-12-15T09:56:37.072Z,4.24
2017-12-15T09:59:02.835Z,4.30
2017-12-15T10:01:28.599Z,4.34
2017-12-15T10:03:54.352Z,4.46
2017-12-15T10:06:20.102Z,4.47
2017-12-15T10:08:45.867Z,4.44
2017-12-15T10:11:11.611Z,4.24
2017-12-15T10:13:37.357Z,4.10
2017-12-15T10:16:03.134Z,4.28
2017-12-15T10:18:28.875Z,4.38
2017-12-15T10:20:54.641Z,4.43
2017-12-15T10:23:20.399Z,4.31
2017-12-15T10:25:46.151Z,4.37
2017-12-15T10:28:11.898Z,4.40
2017-12-15T10:30:37.667Z,4.48
2017-12-15T10:33:03.426Z,4.36
2017-12-15T10:35:29.193Z,4.39
2017-12-15T10:37:54.939Z,4.38
2017-12-15T10:40:20.691Z,4.43
2017-12-15T10:42:46.433Z,4.37
2017-12-15T10:45:12.196Z,4.37
2017-12-15T10:47:37.954Z,4.48
2017-12-15T10:50:03.724Z,4.38
2017-12-15T10:52:29.476Z,4.33
2017-12-15T10:54:55.233Z,4.27
2017-12-15T10:57:20.968Z,4.29
2017-12-15T10:59:46.728Z,4.26
2017-12-15T11:02:12.491Z,4.18
2017-12-15T11:04:38.244Z,4.17
2017-12-15T11:07:04.012Z,4.36
2017-12-15T11:09:29.756Z,4.50
2017-12-15T11:11:56.127Z,4.69
2017-12-15T11:14:21.898Z,4.66
2017-12-15T11:16:47.663Z,4.58
2017-12-15T11:19:13.411Z,4.35
2017-12-15T11:21:39.176Z,4.27
2017-12-15T11:24:04.932Z,4.36
2017-12-15T11:26:30.751Z,4.48
2017-12-15T11:28:56.571Z,4.46
2017-12-15T11:31:22.275Z,4.26
2017-12-15T11:33:48.043Z,4.24
2017-12-15T11:36:13.803Z,4.30
2017-12-15T11:38:39.543Z,4.29
2017-12-15T11:41:05.286Z,4.18
2017-12-15T11:43:31.057Z,4.27
2017-12-15T11:45:56.807Z,4.28
2017-12-15T11:48:22.588Z,4.43
2017-12-15T11:50:48.342Z,4.47
2017-12-15T11:53:14.103Z,4.38
2017-12-15T11:55:39.868Z,4.35
2017-12-15T11:58:05.631Z,4.33
2017-12-15T12:00:31.387Z,4.33
2017-12-15T12:02:57.154Z,4.43
2017-12-15T12:05:22.908Z,4.43
2017-12-15T12:07:48.676Z,4.29
2017-12-15T12:10:14.428Z,4.33
2017-12-15T12:12:40.184Z,4.30
2017-12-15T12:15:05.954Z,4.21
2017-12-15T12:17:31.713Z,4.27
2017-12-15T12:19:57.473Z,4.31
2017-12-15T12:22:23.231Z,4.32
2017-12-15T12:24:48.999Z,4.25
2017-12-15T12:27:14.762Z,4.37
2017-12-15T12:29:40.532Z,4.29
2017-12-15T12:32:06.292Z,4.18
2017-12-15T12:34:32.067Z,4.23
2017-12-15T12:36:57.808Z,4.20
2017-12-15T12:39:23.571Z,4.24
2017-12-15T12:41:49.310Z,4.24
2017-12-15T12:44:15.060Z,4.23
2017-12-15T12:46:40.816Z,4.26
2017-12-15T12:49:06.582Z,4.25
2017-12-15T12:51:32.326Z,4.35
2017-12-15T12:53:58.072Z,4.33
2017-12-15T12:56:23.835Z,4.42
2017-12-15T12:58:49.584Z,4.29
2017-12-15T13:01:15.364Z,4.28
2017-12-15T13:03:41.120Z,4.04
2017-12-15T13:06:06.887Z,4.01
2017-12-15T13:08:32.627Z,4.12
2017-12-15T13:10:58.397Z,4.12
2017-12-15T13:13:24.148Z,4.04
2017-12-15T13:15:49.920Z,3.85
2017-12-15T13:18:15.683Z,3.97
2017-12-15T13:20:41.470Z,3.99
2017-12-15T13:23:07.263Z,3.90
2017-12-15T13:25:33.030Z,3.92
2017-12-15T13:27:58.779Z,3.88
2017-12-15T13:30:24.536Z,3.90
2017-12-15T13:32:50.304Z,3.94
2017-12-15T13:35:16.068Z,3.92
2017-12-15T13:37:41.824Z,3.99
2017-12-15T13:40:07.585Z,4.00
2017-12-15T13:42:33.354Z,3.89
2017-12-15T13:44:59.091Z,3.88
2017-12-15T13:47:24.859Z,3.74
2017-12-15T13:49:50.748Z,3.94
2017-12-15T13:52:16.530Z,3.88
2017-12-15T13:54:42.299Z,3.96
2017-12-15T13:57:08.046Z,3.91
2017-12-15T13:59:33.822Z,3.96
2017-12-15T14:01:59.583Z,3.99
2017-12-15T14:04:25.346Z,3.92
2017-12-15T14:06:51.135Z,3.89
2017-12-15T14:09:16.872Z,3.89
2017-12-15T14:11:42.617Z,4.14
2017-12-15T14:14:08.362Z,4.19
2017-12-15T14:16:34.119Z,3.98
2017-12-15T14:18:59.880Z,4.11
2017-12-15T14:21:25.640Z,3.97
2017-12-15T14:23:51.420Z,4.03
2017-12-15T14:26:17.179Z,4.01
2017-12-15T14:28:42.942Z,3.93
2017-12-15T14:31:08.702Z,4.01
2017-12-15T14:33:34.483Z,4.01
2017-12-15T14:36:00.232Z,4.06
2017-12-15T14:38:26.002Z,4.11
2017-12-15T14:40:51.748Z,4.10
2017-12-15T14:43:17.504Z,4.03
2017-12-15T14:45:43.276Z,4.06
2017-12-15T14:48:09.033Z,4.01
2017-12-15T14:50:34.800Z,4.05
2017-12-15T14:53:00.556Z,4.01
2017-12-15T14:55:26.326Z,4.07
2017-12-15T14:57:52.072Z,4.07
2017-12-15T15:00:17.860Z,4.00
2017-12-15T15:02:43.648Z,3.95
2017-12-15T15:05:09.416Z,4.03
2017-12-15T15:07:35.171Z,4.07
2017-12-15T15:10:00.948Z,4.03
2017-12-15T15:12:26.688Z,3.77
2017-12-15T15:14:52.444Z,3.80
2017-12-15T15:17:18.230Z,3.87
2017-12-15T15:19:43.956Z,3.82
2017-12-15T15:22:09.714Z,3.78
2017-12-15T15:24:35.482Z,3.85
2017-12-15T15:27:01.226Z,3.88
2017-12-15T15:29:26.975Z,3.88
2017-12-15T15:31:52.744Z,4.01
2017-12-15T15:34:18.511Z,4.00
2017-12-15T15:36:44.275Z,4.04
2017-12-15T15:39:10.035Z,4.09
2017-12-15T15:41:35.815Z,4.14
2017-12-15T15:44:01.594Z,4.20
2017-12-15T15:46:27.352Z,4.15
2017-12-15T15:48:53.132Z,4.13
2017-12-15T15:51:18.911Z,4.24
2017-12-15T15:53:44.743Z,4.26
2017-12-15T15:56:10.515Z,4.29
2017-12-15T15:58:36.310Z,4.38
2017-12-15T16:01:02.068Z,4.34
2017-12-15T16:03:27.845Z,4.37
2017-12-15T16:05:53.619Z,4.37
2017-12-15T16:08:19.419Z,4.41
2017-12-15T16:10:45.175Z,4.41
2017-12-15T16:13:10.968Z,4.27
2017-12-15T16:15:36.728Z,4.01
2017-12-15T16:18:02.491Z,4.30
2017-12-15T16:20:28.252Z,4.32
2017-12-15T16:22:54.011Z,4.25
2017-12-15T16:25:20.335Z,4.16
2017-12-15T16:27:52.074Z,4.04
2017-12-15T16:30:18.045Z,3.96
2017-12-15T16:32:44.480Z,3.95
2017-12-15T16:35:11.148Z,3.80
2017-12-15T16:37:37.261Z,3.79
2017-12-15T16:40:04.593Z,3.77
2017-12-15T16:42:30.371Z,3.78
2017-12-15T16:44:56.404Z,3.68
2017-12-15T16:47:22.639Z,3.70
2017-12-15T16:49:48.579Z,3.63
2017-12-15T16:52:14.689Z,3.62
2017-12-15T16:54:40.615Z,3.69
2017-12-15T16:57:06.549Z,3.65
2017-12-15T16:59:32.371Z,3.58
2017-12-15T17:01:58.132Z,3.64
2017-12-15T17:04:23.899Z,3.60
2017-12-15T17:06:49.706Z,3.52
2017-12-15T17:09:16.612Z,3.57
2017-12-15T17:11:42.400Z,3.56
2017-12-15T17:14:08.199Z,3.49
2017-12-15T17:16:33.965Z,3.50
2017-12-15T17:18:59.716Z,3.55
2017-12-15T17:21:25.502Z,3.60
2017-12-15T17:23:51.276Z,3.65
2017-12-15T17:26:17.038Z,3.56
2017-12-15T17:28:42.784Z,3.51
2017-12-15T17:31:08.560Z,3.65
2017-12-15T17:33:34.335Z,3.65
2017-12-15T17:36:00.115Z,3.64
2017-12-15T17:38:25.894Z,3.66
2017-12-15T17:40:51.652Z,3.48
2017-12-15T17:43:17.394Z,3.44
2017-12-15T17:45:43.160Z,3.49
2017-12-15T17:48:08.918Z,3.43
2017-12-15T17:50:34.684Z,3.51
2017-12-15T17:53:00.489Z,4.16
2017-12-15T17:56:22.295Z,3.94
2017-12-15T17:58:48.056Z,3.27
2017-12-15T18:01:13.868Z,3.11
2017-12-15T18:03:39.628Z,2.99
2017-12-15T18:06:05.396Z,2.93
2017-12-15T18:08:31.157Z,2.94
2017-12-15T18:10:58.273Z,2.93
2017-12-15T18:13:25.549Z,2.89
2017-12-15T18:15:53.080Z,2.90
2017-12-15T18:18:18.920Z,2.94
2017-12-15T18:20:44.670Z,2.95
2017-12-15T18:23:10.441Z,2.90
2017-12-15T18:25:36.197Z,2.87
2017-12-15T18:28:01.973Z,2.87
2017-12-15T18:30:27.733Z,2.78
2017-12-15T18:32:53.508Z,2.78
2017-12-15T18:35:19.378Z,2.81
2017-12-15T18:37:45.248Z,2.87
2017-12-15T18:40:10.996Z,2.80
2017-12-15T18:42:36.763Z,2.80
2017-12-15T18:45:02.511Z,2.79
2017-12-15T18:47:28.283Z,2.78
2017-12-15T18:49:54.055Z,2.80
2017-12-15T18:52:19.832Z,2.88
2017-12-15T18:54:45.598Z,2.80
2017-12-15T18:57:11.347Z,2.73
2017-12-15T18:59:37.215Z,2.67
2017-12-15T19:02:03.023Z,2.61
2017-12-15T19:04:28.803Z,2.56
2017-12-15T19:06:54.718Z,3.23
2017-12-15T19:10:17.336Z,5.11
2017-12-15T19:12:43.110Z,3.58
2017-12-15T19:15:08.862Z,4.13
2017-12-15T19:17:34.611Z,3.53
2017-12-15T19:20:00.387Z,3.51
2017-12-15T19:22:26.147Z,3.51
2017-12-15T19:24:52.152Z,3.45
2017-12-15T19:27:17.918Z,3.69
2017-12-15T19:29:43.745Z,3.63
2017-12-15T19:32:09.461Z,3.57
2017-12-15T19:34:35.224Z,3.61
2017-12-15T19:37:00.982Z,3.60
2017-12-15T19:39:26.747Z,3.56
2017-12-15T19:41:52.507Z,3.52
2017-12-15T19:44:18.268Z,3.33
2017-12-15T19:46:44.023Z,3.42
2017-12-15T19:49:09.792Z,3.39
2017-12-15T19:51:35.535Z,3.34
2017-12-15T19:54:01.327Z,3.49
2017-12-15T19:56:27.059Z,3.51
2017-12-15T19:58:52.846Z,3.46
2017-12-15T20:01:18.591Z,3.36
2017-12-15T20:03:44.390Z,3.42
2017-12-15T20:06:10.175Z,3.58
2017-12-15T20:08:36.105Z,3.69
2017-12-15T20:11:01.881Z,3.60
2017-12-15T20:13:27.636Z,3.83
2017-12-15T20:15:53.413Z,3.81
2017-12-15T20:18:19.172Z,3.87
2017-12-15T20:20:44.947Z,3.84
2017-12-15T20:23:10.688Z,3.66
2017-12-15T20:25:36.492Z,3.91
2017-12-15T20:28:02.275Z,3.87
2017-12-15T20:30:28.058Z,3.92
2017-12-15T20:32:53.836Z,3.89
2017-12-15T20:35:19.638Z,3.93
2017-12-15T20:37:45.390Z,3.95
2017-12-15T20:40:11.149Z,3.88
2017-12-15T20:42:36.916Z,3.95
2017-12-15T20:45:02.676Z,3.95
2017-12-15T20:47:28.440Z,4.02
2017-12-15T20:52:26.798Z,4.13
2017-12-15T20:54:52.547Z,4.08
2017-12-15T20:57:18.315Z,3.93
2017-12-15T20:59:44.089Z,4.12
2017-12-15T21:02:09.835Z,4.08
2017-12-15T21:04:35.595Z,4.18
2017-12-15T21:07:01.364Z,4.26
2017-12-15T21:09:27.150Z,4.21
2017-12-15T21:11:52.936Z,4.23
2017-12-15T21:14:18.812Z,4.06
2017-12-15T21:16:44.605Z,4.17
2017-12-15T21:19:10.343Z,4.25
2017-12-15T21:21:36.078Z,4.18
2017-12-15T21:24:01.824Z,4.31
2017-12-15T21:26:27.578Z,4.18
2017-12-15T21:28:53.347Z,4.33
2017-12-15T21:31:19.103Z,4.16
2017-12-15T21:33:44.878Z,4.00
2017-12-15T21:36:10.627Z,4.12
2017-12-15T21:38:36.388Z,4.27
2017-12-15T21:41:02.135Z,4.21
2017-12-15T21:43:27.905Z,4.08
2017-12-15T21:45:53.647Z,4.17
2017-12-15T21:48:19.415Z,4.19
2017-12-15T21:50:45.168Z,4.44
2017-12-15T21:53:10.924Z,4.52
2017-12-15T21:55:36.650Z,4.48
2017-12-15T21:58:09.435Z,4.47
2017-12-15T22:00:35.191Z,4.39
2017-12-15T22:03:00.968Z,4.52
2017-12-15T22:05:26.720Z,4.43
2017-12-15T22:07:52.475Z,4.36
2017-12-15T22:10:18.215Z,4.39
2017-12-15T22:12:43.967Z,4.41
2017-12-15T22:15:09.743Z,4.36
2017-12-15T22:17:35.487Z,4.49
2017-12-15T22:20:01.251Z,4.36
2017-12-15T22:22:27.011Z,4.45
2017-12-15T22:24:52.772Z,4.62
2017-12-15T22:27:18.543Z,4.51
2017-12-15T22:29:44.304Z,4.43
2017-12-15T22:32:10.059Z,4.40
2017-12-15T22:34:35.843Z,4.48
2017-12-15T22:37:01.592Z,4.61
2017-12-15T22:39:27.346Z,4.41
2017-12-15T22:41:53.095Z,4.33
2017-12-15T22:44:18.869Z,4.23
2017-12-15T22:46:44.615Z,4.36
2017-12-15T22:49:10.364Z,4.28
2017-12-15T22:51:36.126Z,4.48
2017-12-15T22:54:01.907Z,4.35
2017-12-15T22:56:27.647Z,4.53
2017-12-15T22:58:53.405Z,4.54
2017-12-15T23:01:19.172Z,4.50
2017-12-15T23:03:44.930Z,4.46
2017-12-15T23:06:10.687Z,4.49
2017-12-15T23:08:36.475Z,4.32
2017-12-15T23:11:02.236Z,4.53
2017-12-15T23:13:27.992Z,4.45
2017-12-15T23:15:53.756Z,4.31
2017-12-15T23:18:19.491Z,4.22
2017-12-15T23:20:45.243Z,4.23
2017-12-15T23:23:10.995Z,4.31
2017-12-15T23:25:36.755Z,4.18
2017-12-15T23:28:02.511Z,4.23
2017-12-15T23:30:28.272Z,4.45
2017-12-15T23:32:54.022Z,4.43
2017-12-15T23:35:19.803Z,4.43
2017-12-15T23:37:45.568Z,4.55
2017-12-15T23:40:11.506Z,4.43
2017-12-15T23:42:37.247Z,4.32
2017-12-15T23:45:03.035Z,4.37
2017-12-15T23:47:28.804Z,4.27
2017-12-15T23:49:54.611Z,4.23
2017-12-15T23:52:20.534Z,4.19
2017-12-15T23:54:58.766Z,4.30
2017-12-15T23:57:24.518Z,4.36
2017-12-15T23:59:50.331Z,4.43
